Time;durP1;ratioP1;P1;durP2;ratioP2;P2;SDS_P1;SDS_P2;PMS_P1;PMS_P2;Temp;Humidity;BMP_temperature;BMP_pressure;BME280_temperature;BME280_humidity;BME280_pressure;Samples;Min_cycle;Max_cycle;Signal;HPM_P1;HPM_P2
2020/12/19 00:01:34;;;;;;;1.45;1.08;;;15.30;69.20;;;;;;5015960;28;20119;-76
2020/12/19 00:04:03;;;;;;;1.20;0.93;;;15.30;69.20;;;;;;5012378;28;20322;-76
2020/12/19 00:06:29;;;;;;;1.58;0.85;;;15.30;69.20;;;;;;4993047;28;20042;-76
2020/12/19 00:08:54;;;;;;;1.42;1.00;;;15.30;69.20;;;;;;5014177;28;20030;-76
2020/12/19 00:11:23;;;;;;;1.23;0.82;;;15.30;69.20;;;;;;5012608;28;20034;-76
2020/12/19 00:13:53;;;;;;;1.00;0.80;;;15.30;69.20;;;;;;5017765;28;20034;-76
2020/12/19 00:16:19;;;;;;;1.60;0.98;;;15.30;69.20;;;;;;5014120;28;20033;-77
2020/12/19 00:18:46;;;;;;;1.83;0.75;;;15.30;69.20;;;;;;5006472;28;20034;-76
2020/12/19 00:21:19;;;;;;;1.38;0.75;;;15.30;69.20;;;;;;5008160;28;20041;-76
2020/12/19 00:23:54;;;;;;;0.57;0.50;;;15.30;69.20;;;;;;5008341;28;20376;-74
2020/12/19 00:26:30;;;;;;;0.68;0.68;;;15.30;69.20;;;;;;5007282;28;20121;-74
2020/12/19 00:29:14;;;;;;;0.75;0.55;;;15.30;69.20;;;;;;4990494;28;20467;-76
2020/12/19 00:31:48;;;;;;;1.65;0.70;;;15.30;69.20;;;;;;5006885;28;20479;-76
2020/12/19 00:34:18;;;;;;;1.58;0.82;;;15.30;69.20;;;;;;5011698;28;20074;-76
2020/12/19 00:36:44;;;;;;;0.65;0.57;;;15.30;69.30;;;;;;5009991;28;20030;-76
2020/12/19 00:39:17;;;;;;;1.80;1.17;;;15.30;69.20;;;;;;5015141;28;20040;-76
2020/12/19 00:42:00;;;;;;;1.13;0.73;;;15.30;69.20;;;;;;5006346;28;20037;-76
2020/12/19 00:44:29;;;;;;;0.93;0.80;;;15.30;69.30;;;;;;5009737;28;20073;-76
2020/12/19 00:46:59;;;;;;;3.35;0.80;;;15.30;69.30;;;;;;5007540;28;20033;-76
2020/12/19 00:49:25;;;;;;;1.88;0.85;;;15.20;69.20;;;;;;5009677;28;20037;-76
2020/12/19 00:51:53;;;;;;;1.33;1.10;;;15.20;69.30;;;;;;5008264;28;20038;-76
2020/12/19 00:54:23;;;;;;;0.70;0.70;;;15.30;69.30;;;;;;5005461;28;20045;-76
2020/12/19 00:56:54;;;;;;;1.52;0.90;;;15.30;69.30;;;;;;5007376;28;20385;-77
2020/12/19 00:59:25;;;;;;;0.80;0.80;;;15.30;69.30;;;;;;5009939;28;20026;-77
2020/12/19 01:01:53;;;;;;;0.85;0.70;;;15.20;69.30;;;;;;5007693;28;20038;-76
2020/12/19 01:04:28;;;;;;;0.70;0.70;;;15.30;69.30;;;;;;5008274;28;20034;-76
2020/12/19 01:06:58;;;;;;;0.98;0.75;;;15.20;69.30;;;;;;5006818;28;20104;-76
2020/12/19 01:09:29;;;;;;;1.88;0.80;;;15.20;69.30;;;;;;5007654;28;20056;-77
2020/12/19 01:11:59;;;;;;;1.63;0.88;;;15.30;69.30;;;;;;5009533;28;20065;-76
2020/12/19 01:14:30;;;;;;;1.45;0.70;;;15.20;69.30;;;;;;4988347;28;20376;-77
2020/12/19 01:17:02;;;;;;;0.82;0.60;;;15.30;69.30;;;;;;5006376;28;20030;-76
2020/12/19 01:19:28;;;;;;;1.10;1.00;;;15.20;69.30;;;;;;5008645;28;20181;-76
2020/12/19 01:21:55;;;;;;;1.52;0.70;;;15.30;69.30;;;;;;5013507;28;20476;-76
2020/12/19 01:24:31;;;;;;;1.48;1.00;;;15.20;69.30;;;;;;5011858;28;20037;-78
2020/12/19 01:27:07;;;;;;;1.45;0.93;;;15.20;69.30;;;;;;5006001;28;20524;-76
2020/12/19 01:29:37;;;;;;;1.35;0.80;;;15.30;69.30;;;;;;5006383;28;20038;-77
2020/12/19 01:32:03;;;;;;;1.55;0.82;;;15.20;69.30;;;;;;4989145;28;20042;-76
2020/12/19 01:34:34;;;;;;;1.10;0.82;;;15.20;69.30;;;;;;5007139;28;20034;-76
2020/12/19 01:37:14;;;;;;;1.10;1.00;;;15.20;69.30;;;;;;5006743;28;20026;-76
2020/12/19 01:39:45;;;;;;;1.42;0.93;;;15.20;69.30;;;;;;5005846;28;20073;-75
2020/12/19 01:42:11;;;;;;;0.95;0.85;;;15.20;69.30;;;;;;5004614;28;20068;-76
2020/12/19 01:44:41;;;;;;;1.50;0.77;;;15.20;69.30;;;;;;5009004;28;20476;-76
2020/12/19 01:47:21;;;;;;;0.65;0.55;;;15.20;69.40;;;;;;5012598;28;20029;-76
2020/12/19 01:49:52;;;;;;;1.42;0.70;;;15.20;69.40;;;;;;5011659;28;20029;-76
2020/12/19 01:52:21;;;;;;;1.40;1.00;;;15.30;69.40;;;;;;5008235;28;20034;-77
2020/12/19 01:54:51;;;;;;;1.30;0.80;;;15.20;69.40;;;;;;4991128;28;20026;-77
2020/12/19 01:57:33;;;;;;;0.98;0.75;;;15.20;69.40;;;;;;5007460;28;20030;-76
2020/12/19 02:00:13;;;;;;;1.35;1.17;;;15.20;69.40;;;;;;5007000;28;20065;-77
2020/12/19 02:02:44;;;;;;;1.40;0.93;;;15.20;69.40;;;;;;5001699;28;20038;-76
2020/12/19 02:05:17;;;;;;;1.02;0.73;;;15.20;69.40;;;;;;5005417;28;20041;-75
2020/12/19 02:07:46;;;;;;;1.55;1.00;;;15.20;69.40;;;;;;5004789;28;20049;-76
2020/12/19 02:10:16;;;;;;;1.30;0.70;;;15.20;69.40;;;;;;5006935;28;20026;-76
2020/12/19 02:12:50;;;;;;;0.85;0.77;;;15.20;69.40;;;;;;5006206;28;20188;-76
2020/12/19 02:15:22;;;;;;;0.90;0.75;;;15.20;69.40;;;;;;5006894;28;20536;-76
2020/12/19 02:17:50;;;;;;;0.85;0.70;;;15.20;69.40;;;;;;5008453;28;20068;-77
2020/12/19 02:20:21;;;;;;;1.20;0.70;;;15.20;69.40;;;;;;5004343;28;20057;-76
2020/12/19 02:22:51;;;;;;;0.73;0.65;;;15.20;69.40;;;;;;5006029;28;20065;-78
2020/12/19 02:25:24;;;;;;;0.73;0.70;;;15.20;69.40;;;;;;5007784;28;20061;-78
2020/12/19 02:27:50;;;;;;;1.13;0.93;;;15.20;69.40;;;;;;5006026;28;20037;-76
2020/12/19 02:30:22;;;;;;;0.75;0.70;;;15.20;69.40;;;;;;5004672;28;20049;-76
2020/12/19 02:32:48;;;;;;;1.67;0.90;;;15.20;69.40;;;;;;5006454;28;20133;-77
2020/12/19 02:35:13;;;;;;;1.52;0.98;;;15.20;69.40;;;;;;5005671;28;20108;-76
2020/12/19 02:37:43;;;;;;;1.10;0.90;;;15.20;69.40;;;;;;5006441;28;20030;-76
2020/12/19 02:40:14;;;;;;;1.60;1.00;;;15.20;69.40;;;;;;5005725;28;20030;-76
2020/12/19 02:42:41;;;;;;;2.22;0.80;;;15.20;69.40;;;;;;5007087;28;20033;-76
2020/12/19 02:45:10;;;;;;;1.45;0.90;;;15.20;69.40;;;;;;5007529;28;20110;-76
2020/12/19 02:47:44;;;;;;;1.88;0.95;;;15.20;69.40;;;;;;5004525;28;20042;-76
2020/12/19 02:50:14;;;;;;;2.85;1.00;;;15.20;69.40;;;;;;5005580;28;20084;-76
2020/12/19 02:52:45;;;;;;;1.00;0.60;;;15.20;69.40;;;;;;5006971;28;20025;-76
2020/12/19 02:55:25;;;;;;;0.70;0.70;;;15.20;69.40;;;;;;5008849;28;20034;-76
2020/12/19 02:57:56;;;;;;;1.98;0.82;;;15.20;69.40;;;;;;5006572;28;20113;-76
2020/12/19 03:00:30;;;;;;;1.23;0.85;;;15.20;69.40;;;;;;5006548;28;20066;-76
2020/12/19 03:03:04;;;;;;;1.23;0.88;;;15.20;69.40;;;;;;5004520;28;20132;-76
2020/12/19 03:05:43;;;;;;;1.08;0.98;;;15.10;69.40;;;;;;5005311;28;20515;-76
2020/12/19 03:08:09;;;;;;;1.10;1.00;;;15.20;69.40;;;;;;5011837;28;20052;-76
2020/12/19 03:10:36;;;;;;;1.58;0.90;;;15.20;69.40;;;;;;5006958;28;20033;-78
2020/12/19 03:13:01;;;;;;;0.85;0.73;;;15.20;69.50;;;;;;5007968;28;20141;-76
2020/12/19 03:15:28;;;;;;;1.27;1.00;;;15.20;69.40;;;;;;5006413;28;20042;-76
2020/12/19 03:18:19;;;;;;;1.33;1.00;;;15.20;69.40;;;;;;5008074;28;20125;-76
2020/12/19 03:20:49;;;;;;;1.40;0.68;;;15.20;69.40;;;;;;5008889;28;20038;-76
2020/12/19 03:23:37;;;;;;;0.88;0.88;;;15.20;69.40;;;;;;5005388;28;20442;-76
2020/12/19 03:26:08;;;;;;;1.50;0.70;;;15.10;69.40;;;;;;5005075;28;20037;-76
2020/12/19 03:28:44;;;;;;;1.50;0.77;;;15.10;69.40;;;;;;5003317;28;20483;-76
2020/12/19 03:31:09;;;;;;;0.77;0.70;;;15.10;69.40;;;;;;5006882;28;20103;-76
2020/12/19 03:33:40;;;;;;;1.40;0.70;;;15.20;69.40;;;;;;5006889;28;20041;-76
2020/12/19 03:36:10;;;;;;;1.52;0.90;;;15.10;69.40;;;;;;4990198;28;20064;-76
2020/12/19 03:38:47;;;;;;;2.22;1.02;;;15.10;69.40;;;;;;5008457;28;20021;-76
2020/12/19 03:41:17;;;;;;;2.72;0.93;;;15.10;69.40;;;;;;5007360;28;20046;-77
2020/12/19 03:43:53;;;;;;;1.05;0.73;;;15.20;69.50;;;;;;5005532;28;20034;-76
2020/12/19 03:46:25;;;;;;;2.35;1.00;;;15.10;69.50;;;;;;5005384;28;20030;-77
2020/12/19 03:49:05;;;;;;;1.67;0.90;;;15.10;69.50;;;;;;5005235;28;20104;-76
2020/12/19 03:51:43;;;;;;;1.73;0.98;;;15.10;69.50;;;;;;5006596;28;20786;-76
2020/12/19 03:54:12;;;;;;;2.15;0.82;;;15.10;69.50;;;;;;5008936;28;20034;-76
2020/12/19 03:56:52;;;;;;;1.85;1.00;;;15.10;69.50;;;;;;5008362;28;20045;-77
2020/12/19 03:59:20;;;;;;;1.48;0.93;;;15.10;69.50;;;;;;5010790;28;20030;-76
2020/12/19 04:01:46;;;;;;;1.63;1.02;;;15.10;69.50;;;;;;5011044;28;20128;-76
2020/12/19 04:04:16;;;;;;;2.47;1.05;;;15.10;69.50;;;;;;5012317;28;20038;-76
2020/12/19 04:06:46;;;;;;;1.70;1.05;;;15.10;69.50;;;;;;5010323;28;20030;-77
2020/12/19 04:09:17;;;;;;;0.98;0.88;;;15.10;69.50;;;;;;4988507;28;20054;-76
2020/12/19 04:11:43;;;;;;;1.83;1.00;;;15.10;69.50;;;;;;5008496;28;20042;-76
2020/12/19 04:14:11;;;;;;;1.30;1.00;;;15.10;69.50;;;;;;5010216;28;20030;-76
2020/12/19 04:16:43;;;;;;;;;;;15.10;69.50;;;;;;5010987;28;20038;-76
2020/12/19 04:19:13;;;;;;;1.95;0.80;;;15.10;69.50;;;;;;5008334;28;19940;-77
2020/12/19 04:21:43;;;;;;;1.98;1.20;;;15.10;69.50;;;;;;5011912;28;20046;-76
2020/12/19 04:24:21;;;;;;;1.08;0.93;;;15.10;69.50;;;;;;4989413;28;20407;-76
2020/12/19 04:26:59;;;;;;;1.50;0.82;;;15.10;69.50;;;;;;5009383;28;20030;-77
2020/12/19 04:29:36;;;;;;;1.67;0.82;;;15.10;69.50;;;;;;5010632;28;20076;-76
2020/12/19 04:32:06;;;;;;;1.25;0.95;;;15.10;69.50;;;;;;5008955;28;20042;-77
2020/12/19 04:34:34;;;;;;;1.30;1.00;;;15.10;69.50;;;;;;5006548;28;20085;-79
2020/12/19 04:37:00;;;;;;;1.10;0.80;;;15.10;69.60;;;;;;5006227;28;20030;-76
2020/12/19 04:39:50;;;;;;;1.10;0.80;;;15.10;69.50;;;;;;5006779;28;20502;-76
2020/12/19 04:42:41;;;;;;;1.55;1.10;;;15.10;69.60;;;;;;5009706;28;20100;-76
2020/12/19 04:45:12;;;;;;;1.50;0.90;;;15.10;69.60;;;;;;5010428;28;20111;-76
2020/12/19 04:47:38;;;;;;;1.00;0.90;;;15.10;69.50;;;;;;4994459;28;20526;-77
2020/12/19 04:50:09;;;;;;;0.85;0.85;;;15.10;69.50;;;;;;5009061;28;20038;-76
2020/12/19 04:52:46;;;;;;;0.85;0.85;;;15.10;69.50;;;;;;5011682;28;20026;-76
2020/12/19 04:55:17;;;;;;;1.08;0.82;;;15.10;69.50;;;;;;5009654;28;20471;-77
2020/12/19 04:57:58;;;;;;;1.15;1.00;;;15.10;69.50;;;;;;5003603;28;20377;-77
2020/12/19 05:00:25;;;;;;;0.90;0.70;;;15.10;69.50;;;;;;5006155;28;20060;-77
2020/12/19 05:02:53;;;;;;;0.60;0.60;;;15.10;69.60;;;;;;5005931;28;20037;-76
2020/12/19 05:05:19;;;;;;;2.38;0.95;;;15.10;69.60;;;;;;5005113;28;20396;-76
2020/12/19 05:07:59;;;;;;;1.00;0.90;;;15.10;69.50;;;;;;5007528;28;20035;-77
2020/12/19 05:10:38;;;;;;;1.60;1.17;;;15.10;69.60;;;;;;5007589;28;20116;-77
2020/12/19 05:13:09;;;;;;;1.30;0.82;;;15.10;69.50;;;;;;5009152;28;20052;-76
2020/12/19 05:15:36;;;;;;;2.20;0.80;;;15.00;69.60;;;;;;5010624;28;20048;-75
2020/12/19 05:18:10;;;;;;;1.00;0.90;;;15.10;69.50;;;;;;5008625;28;20033;-76
2020/12/19 05:20:41;;;;;;;1.10;0.82;;;15.10;69.60;;;;;;5008946;28;20030;-76
2020/12/19 05:23:14;;;;;;;2.28;0.95;;;15.10;69.50;;;;;;5006162;28;21447;-76
2020/12/19 05:25:40;;;;;;;1.25;0.73;;;15.00;69.60;;;;;;5006404;28;20034;-76
2020/12/19 05:28:11;;;;;;;1.00;0.90;;;15.10;69.60;;;;;;5007743;28;20056;-76
2020/12/19 05:30:50;;;;;;;1.00;0.90;;;15.00;69.60;;;;;;5005611;28;20034;-77
2020/12/19 05:33:23;;;;;;;0.60;0.60;;;15.00;69.60;;;;;;5007377;28;20065;-76
2020/12/19 05:35:53;;;;;;;1.13;0.80;;;15.00;69.60;;;;;;5004904;28;20141;-77
2020/12/19 05:38:21;;;;;;;1.50;0.70;;;15.00;69.60;;;;;;5012039;28;20042;-77
2020/12/19 05:41:02;;;;;;;1.02;0.70;;;15.10;69.60;;;;;;5010559;28;20095;-76
2020/12/19 05:43:32;;;;;;;1.02;0.90;;;15.00;69.60;;;;;;5012888;28;20084;-76
2020/12/19 05:46:06;;;;;;;1.55;1.02;;;15.10;69.60;;;;;;5010109;28;20442;-76
2020/12/19 05:48:35;;;;;;;1.45;0.80;;;15.00;69.60;;;;;;5006501;28;20301;-77
2020/12/19 05:51:14;;;;;;;1.02;0.63;;;15.00;69.60;;;;;;5009485;28;20037;-76
2020/12/19 05:53:50;;;;;;;1.58;0.80;;;15.10;69.60;;;;;;5005457;28;20026;-76
2020/12/19 05:56:16;;;;;;;2.05;0.95;;;15.00;69.60;;;;;;5008252;28;20030;-76
2020/12/19 05:58:47;;;;;;;1.35;0.95;;;15.00;69.60;;;;;;5011130;28;20132;-76
2020/12/19 06:01:15;;;;;;;0.55;0.50;;;15.10;69.60;;;;;;5005976;28;20037;-76
2020/12/19 06:03:46;;;;;;;1.73;1.15;;;15.00;69.60;;;;;;5006303;28;20061;-77
2020/12/19 06:06:17;;;;;;;0.93;0.73;;;15.00;69.60;;;;;;4988155;28;20117;-77
2020/12/19 06:09:00;;;;;;;2.45;0.90;;;15.00;69.60;;;;;;4990298;28;20539;-76
2020/12/19 06:11:50;;;;;;;1.60;1.00;;;15.00;69.60;;;;;;5007723;28;20431;-76
2020/12/19 06:14:21;;;;;;;1.42;0.90;;;15.00;69.60;;;;;;4986857;28;20662;-76
2020/12/19 06:17:01;;;;;;;0.98;0.80;;;15.00;69.60;;;;;;5004521;28;20395;-76
2020/12/19 06:19:31;;;;;;;1.75;0.80;;;15.00;69.60;;;;;;4988661;28;20076;-77
2020/12/19 06:22:05;;;;;;;1.17;0.80;;;15.00;69.60;;;;;;5005653;28;20498;-76
2020/12/19 06:24:51;;;;;;;0.98;0.70;;;15.00;69.60;;;;;;5003713;28;20521;-78
2020/12/19 06:27:22;;;;;;;1.50;0.95;;;15.00;69.60;;;;;;5005223;28;20049;-76
2020/12/19 06:29:49;;;;;;;1.65;0.90;;;15.00;69.60;;;;;;5005331;28;20041;-77
2020/12/19 06:32:34;;;;;;;1.65;1.00;;;15.00;69.60;;;;;;5004757;28;20347;-76
2020/12/19 06:35:09;;;;;;;0.68;0.65;;;15.00;69.60;;;;;;5004380;28;20042;-76
2020/12/19 06:37:47;;;;;;;0.88;0.73;;;15.00;69.60;;;;;;5006424;28;20120;-76
2020/12/19 06:40:17;;;;;;;1.63;0.93;;;15.10;69.60;;;;;;5008293;28;20116;-76
2020/12/19 06:43:09;;;;;;;1.10;1.00;;;15.00;69.60;;;;;;5004718;28;20169;-77
2020/12/19 06:45:35;;;;;;;0.98;0.88;;;15.00;69.60;;;;;;5005258;28;20034;-76
2020/12/19 06:48:03;;;;;;;1.52;0.90;;;15.00;69.60;;;;;;5004440;28;20144;-77
2020/12/19 06:51:17;;;;;;;1.77;0.80;;;15.00;69.60;;;;;;5009578;28;20384;-76
2020/12/19 06:53:57;;;;;;;2.20;0.90;;;15.00;69.50;;;;;;4983740;28;20047;-77
2020/12/19 06:56:26;;;;;;;2.05;0.90;;;15.00;69.50;;;;;;5005799;28;20135;-77
2020/12/19 06:59:08;;;;;;;1.48;0.73;;;15.00;69.50;;;;;;5008904;28;20501;-77
2020/12/19 07:01:38;;;;;;;1.02;0.93;;;15.00;69.50;;;;;;5007234;28;20038;-77
2020/12/19 07:04:23;;;;;;;1.83;1.00;;;15.00;69.50;;;;;;5006426;28;20026;-76
2020/12/19 07:07:03;;;;;;;1.30;0.80;;;15.00;69.50;;;;;;5006375;28;20188;-76
2020/12/19 07:09:53;;;;;;;1.58;0.90;;;15.00;69.50;;;;;;5004878;28;20025;-76
2020/12/19 07:12:38;;;;;;;0.98;0.73;;;15.00;69.50;;;;;;5004338;28;20117;-76
2020/12/19 07:15:16;;;;;;;1.25;0.90;;;15.00;69.60;;;;;;5005277;28;20487;-76
2020/12/19 07:17:47;;;;;;;1.33;1.00;;;15.10;69.50;;;;;;5003685;28;20092;-77
2020/12/19 07:20:19;;;;;;;1.67;0.82;;;15.00;69.50;;;;;;5003561;28;20038;-76
2020/12/19 07:22:44;;;;;;;1.00;0.90;;;15.00;69.50;;;;;;5004606;28;20064;-76
2020/12/19 07:25:12;;;;;;;1.30;0.82;;;15.00;69.50;;;;;;5009155;28;20061;-77
2020/12/19 07:27:39;;;;;;;0.70;0.70;;;15.00;69.50;;;;;;5006609;28;20042;-76
2020/12/19 07:30:09;;;;;;;0.90;0.70;;;15.10;69.50;;;;;;5009171;28;20499;-76
2020/12/19 07:32:37;;;;;;;1.55;0.60;;;15.00;69.50;;;;;;4990262;28;20041;-76
2020/12/19 07:35:03;;;;;;;1.02;0.75;;;15.00;69.40;;;;;;4988854;28;20038;-76
2020/12/19 07:37:37;;;;;;;1.80;0.95;;;15.10;69.50;;;;;;5008671;28;20495;-76
2020/12/19 07:40:15;;;;;;;1.23;0.88;;;15.00;69.50;;;;;;5007440;28;20038;-77
2020/12/19 07:42:44;;;;;;;0.80;0.68;;;15.10;69.50;;;;;;5008071;28;20034;-76
2020/12/19 07:45:22;;;;;;;0.85;0.80;;;15.10;69.40;;;;;;5008582;28;20030;-76
2020/12/19 07:47:53;;;;;;;1.00;0.85;;;15.00;69.50;;;;;;5007820;28;20488;-76
2020/12/19 07:50:26;;;;;;;1.20;0.75;;;15.10;69.40;;;;;;5015552;28;20037;-76
2020/12/19 07:53:07;;;;;;;1.20;0.85;;;15.00;69.50;;;;;;5014625;28;20034;-75
2020/12/19 07:55:40;;;;;;;2.10;0.80;;;15.00;69.50;;;;;;4995793;28;20049;-76
2020/12/19 07:58:10;;;;;;;0.73;0.60;;;15.00;69.50;;;;;;5007670;28;20030;-76
2020/12/19 08:00:38;;;;;;;1.17;0.80;;;15.00;69.40;;;;;;5009752;28;20567;-77
2020/12/19 08:03:10;;;;;;;1.48;0.65;;;15.10;69.40;;;;;;5008051;28;20042;-76
2020/12/19 08:05:36;;;;;;;0.65;0.65;;;15.10;69.40;;;;;;5007687;28;20026;-76
2020/12/19 08:08:06;;;;;;;0.95;0.80;;;15.10;69.40;;;;;;4990115;28;20522;-76
2020/12/19 08:10:35;;;;;;;1.48;0.80;;;15.10;69.40;;;;;;5008425;28;20034;-76
2020/12/19 08:13:05;;;;;;;1.05;0.90;;;15.00;69.40;;;;;;5008723;28;20115;-76
2020/12/19 08:15:31;;;;;;;1.13;0.77;;;15.00;69.40;;;;;;5009036;28;20034;-76
2020/12/19 08:18:00;;;;;;;0.98;0.85;;;15.00;69.40;;;;;;5007849;28;20045;-76
2020/12/19 08:20:31;;;;;;;0.77;0.75;;;15.10;69.30;;;;;;4989111;28;20054;-76
2020/12/19 08:23:02;;;;;;;1.40;0.80;;;15.10;69.30;;;;;;4988448;28;20041;-76
2020/12/19 08:25:34;;;;;;;0.93;0.70;;;15.10;69.30;;;;;;5006979;28;20038;-76
2020/12/19 08:28:01;;;;;;;0.95;0.50;;;15.10;69.30;;;;;;5006093;28;20176;-77
2020/12/19 08:30:34;;;;;;;0.82;0.52;;;15.10;69.30;;;;;;5008966;28;20034;-76
2020/12/19 08:33:03;;;;;;;1.00;0.80;;;15.10;69.30;;;;;;4991437;28;20124;-76
2020/12/19 08:35:41;;;;;;;1.13;0.77;;;15.10;69.20;;;;;;5009397;28;20399;-76
2020/12/19 08:38:46;;;;;;;1.13;0.70;;;15.10;69.20;;;;;;5006423;28;20388;-76
2020/12/19 08:41:29;;;;;;;1.17;0.60;;;15.10;69.20;;;;;;5008391;28;20137;-78
2020/12/19 08:44:00;;;;;;;1.80;0.80;;;15.10;69.20;;;;;;5006336;28;20061;-76
2020/12/19 08:46:36;;;;;;;1.17;0.85;;;15.10;69.10;;;;;;5002781;28;20407;-76
2020/12/19 08:49:10;;;;;;;0.75;0.68;;;15.10;69.10;;;;;;5001345;28;20038;-76
2020/12/19 08:51:55;;;;;;;0.80;0.70;;;15.10;69.20;;;;;;5008947;28;20069;-76
2020/12/19 08:54:25;;;;;;;0.90;0.85;;;15.10;69.10;;;;;;5007351;28;20036;-78
2020/12/19 08:56:56;;;;;;;0.85;0.65;;;15.20;69.10;;;;;;5007974;28;20026;-76
2020/12/19 08:59:33;;;;;;;0.80;0.80;;;15.10;69.10;;;;;;5007964;28;20025;-77
2020/12/19 09:02:19;;;;;;;0.60;0.60;;;15.10;69.10;;;;;;5010147;28;20111;-76
2020/12/19 09:04:55;;;;;;;1.05;0.95;;;15.10;69.00;;;;;;4990178;28;20040;-75
2020/12/19 09:07:37;;;;;;;0.82;0.70;;;15.10;69.00;;;;;;5006626;28;20062;-76
2020/12/19 09:10:38;;;;;;;1.05;0.93;;;15.10;69.00;;;;;;5006654;28;20105;-76
2020/12/19 09:13:24;;;;;;;0.90;0.80;;;15.10;69.00;;;;;;5006811;28;20659;-77
2020/12/19 09:16:07;;;;;;;0.90;0.75;;;15.10;69.00;;;;;;5006164;28;20040;-77
2020/12/19 09:18:39;;;;;;;0.80;0.80;;;15.10;69.00;;;;;;5006795;28;20034;-76
2020/12/19 09:21:09;;;;;;;0.80;0.80;;;15.20;69.00;;;;;;5008910;28;20411;-76
2020/12/19 09:23:41;;;;;;;1.50;0.90;;;15.20;68.90;;;;;;5008858;28;20514;-74
2020/12/19 09:26:09;;;;;;;1.38;0.68;;;15.20;68.90;;;;;;4991528;28;20053;-78
2020/12/19 09:28:39;;;;;;;0.90;0.90;;;15.20;68.90;;;;;;5005753;28;20030;-76
2020/12/19 09:31:30;;;;;;;0.80;0.63;;;15.20;68.90;;;;;;5008017;28;20089;-76
2020/12/19 09:34:01;;;;;;;1.20;0.90;;;15.20;68.90;;;;;;5004609;28;20522;-76
2020/12/19 09:36:31;;;;;;;0.82;0.73;;;15.10;68.90;;;;;;5005146;28;21541;-76
2020/12/19 09:39:03;;;;;;;1.05;0.80;;;15.10;68.90;;;;;;4985452;28;20436;-74
2020/12/19 09:41:29;;;;;;;1.20;0.77;;;15.20;68.90;;;;;;4990675;28;20061;-74
2020/12/19 09:44:07;;;;;;;0.68;0.60;;;15.20;68.90;;;;;;5004513;28;20030;-74
2020/12/19 09:46:39;;;;;;;0.50;0.50;;;15.20;68.90;;;;;;4994128;28;20150;-75
2020/12/19 09:49:10;;;;;;;1.13;0.80;;;15.20;68.80;;;;;;5004912;28;20055;-76
2020/12/19 09:51:41;;;;;;;0.75;0.75;;;15.20;68.80;;;;;;5005581;28;20305;-75
2020/12/19 09:54:07;;;;;;;0.77;0.70;;;15.20;68.70;;;;;;5005062;28;20423;-75
2020/12/19 09:56:43;;;;;;;0.85;0.77;;;15.20;68.70;;;;;;5008522;28;20092;-75
2020/12/19 09:59:18;;;;;;;0.45;0.40;;;15.20;68.70;;;;;;5006607;28;20419;-77
2020/12/19 10:02:00;;;;;;;1.48;0.70;;;15.20;68.70;;;;;;4988238;28;20042;-74
2020/12/19 10:04:46;;;;;;;0.90;0.88;;;15.20;68.70;;;;;;5004929;28;20042;-75
2020/12/19 10:07:23;;;;;;;0.88;0.68;;;15.30;68.70;;;;;;4986383;28;20030;-75
2020/12/19 10:09:49;;;;;;;1.30;0.60;;;15.20;68.70;;;;;;5005224;28;20076;-75
2020/12/19 10:12:15;;;;;;;1.20;0.80;;;15.20;68.70;;;;;;5005765;28;20069;-75
2020/12/19 10:14:41;;;;;;;0.95;0.80;;;15.20;68.60;;;;;;5005887;28;20037;-75
2020/12/19 10:17:06;;;;;;;1.38;0.70;;;15.30;68.60;;;;;;5007571;28;20117;-75
2020/12/19 10:19:47;;;;;;;1.00;0.90;;;15.20;68.60;;;;;;5007212;28;20161;-75
2020/12/19 10:22:14;;;;;;;0.80;0.60;;;15.20;68.60;;;;;;5005048;28;20041;-75
2020/12/19 10:24:45;;;;;;;1.33;0.77;;;15.20;68.60;;;;;;4989181;28;20092;-75
2020/12/19 10:27:11;;;;;;;0.80;0.75;;;15.30;68.60;;;;;;5002903;28;20038;-75
2020/12/19 10:29:53;;;;;;;0.65;0.65;;;15.30;68.60;;;;;;5004973;28;20045;-75
2020/12/19 10:32:21;;;;;;;1.02;0.70;;;15.30;68.50;;;;;;5007308;28;20077;-76
2020/12/19 10:34:50;;;;;;;0.82;0.60;;;15.30;68.50;;;;;;5006462;28;20038;-77
2020/12/19 10:37:29;;;;;;;0.60;0.60;;;15.30;68.50;;;;;;5004476;28;20081;-75
2020/12/19 10:40:00;;;;;;;0.88;0.63;;;15.30;68.40;;;;;;5002574;28;20040;-74
2020/12/19 10:42:26;;;;;;;0.85;0.80;;;15.30;68.40;;;;;;4988115;28;20030;-74
2020/12/19 10:44:59;;;;;;;0.70;0.57;;;15.30;68.40;;;;;;5004634;28;20426;-76
2020/12/19 10:47:27;;;;;;;0.65;0.65;;;15.30;68.40;;;;;;5004539;28;20037;-75
2020/12/19 10:49:59;;;;;;;0.75;0.60;;;15.30;68.40;;;;;;5006441;28;20495;-74
2020/12/19 10:52:39;;;;;;;1.13;0.95;;;15.30;68.40;;;;;;4990312;28;20052;-74
2020/12/19 10:55:09;;;;;;;0.60;0.60;;;15.30;68.40;;;;;;5006517;28;20030;-74
2020/12/19 10:58:03;;;;;;;1.27;0.73;;;15.30;68.30;;;;;;5011412;28;20022;-74
2020/12/19 11:00:50;;;;;;;1.05;0.70;;;15.30;68.30;;;;;;5011725;28;20033;-74
2020/12/19 11:03:20;;;;;;;0.90;0.55;;;15.30;68.30;;;;;;5010632;28;20065;-74
2020/12/19 11:06:07;;;;;;;0.80;0.70;;;15.30;68.30;;;;;;5010115;28;20030;-74
2020/12/19 11:08:37;;;;;;;2.08;0.90;;;15.30;68.30;;;;;;5010874;28;20034;-74
2020/12/19 11:11:08;;;;;;;1.05;0.70;;;15.30;68.30;;;;;;5010842;28;20121;-76
2020/12/19 11:13:40;;;;;;;0.75;0.60;;;15.30;68.30;;;;;;5012318;28;20034;-74
2020/12/19 11:16:19;;;;;;;0.77;0.68;;;15.30;68.20;;;;;;5009665;28;20491;-74
2020/12/19 11:18:49;;;;;;;0.57;0.57;;;15.30;68.20;;;;;;5011161;28;20116;-74
2020/12/19 11:21:29;;;;;;;1.08;0.70;;;15.30;68.20;;;;;;5010913;28;20085;-74
2020/12/19 11:24:00;;;;;;;2.30;0.95;;;15.30;68.20;;;;;;5005670;28;20041;-74
2020/12/19 11:26:25;;;;;;;0.73;0.50;;;15.30;68.30;;;;;;5010620;28;20124;-74
2020/12/19 11:28:52;;;;;;;1.30;0.80;;;15.30;68.30;;;;;;5011529;28;20117;-73
2020/12/19 11:31:30;;;;;;;0.80;0.70;;;15.30;68.20;;;;;;4992821;28;20057;-75
2020/12/19 11:34:12;;;;;;;;;;;15.30;68.30;;;;;;4973710;28;20046;-75
2020/12/19 11:36:42;;;;;;;0.73;0.70;;;15.30;68.30;;;;;;4972167;28;19932;-74
2020/12/19 11:39:16;;;;;;;0.93;0.75;;;15.30;68.20;;;;;;4972365;28;20105;-74
2020/12/19 11:41:53;;;;;;;0.63;0.60;;;15.30;68.20;;;;;;4972286;28;20488;-74
2020/12/19 11:44:24;;;;;;;1.25;0.88;;;15.30;68.20;;;;;;4985580;28;20519;-73
2020/12/19 11:46:57;;;;;;;0.60;0.60;;;15.30;68.20;;;;;;4971223;28;20043;-74
2020/12/19 11:49:27;;;;;;;1.05;0.75;;;15.30;68.20;;;;;;4968465;28;20047;-74
2020/12/19 11:52:02;;;;;;;0.50;0.50;;;15.30;68.20;;;;;;4972404;28;20062;-74
2020/12/19 11:54:38;;;;;;;0.68;0.68;;;15.30;68.10;;;;;;4971825;28;20067;-75
2020/12/19 11:57:08;;;;;;;0.90;0.73;;;15.30;68.10;;;;;;4971850;28;20030;-74
2020/12/19 11:59:44;;;;;;;0.93;0.70;;;15.30;68.20;;;;;;4967955;28;20571;-74
2020/12/19 12:02:24;;;;;;;1.27;0.88;;;15.30;68.20;;;;;;4971274;28;20035;-74
2020/12/19 12:04:53;;;;;;;1.05;0.77;;;15.30;68.20;;;;;;4969158;28;20034;-74
2020/12/19 12:07:22;;;;;;;1.13;0.70;;;15.30;68.20;;;;;;4987347;28;20047;-74
2020/12/19 12:09:53;;;;;;;0.50;0.50;;;15.30;68.20;;;;;;4973245;28;20782;-75
2020/12/19 12:12:23;;;;;;;0.73;0.70;;;15.30;68.30;;;;;;4969404;28;20046;-74
2020/12/19 12:14:56;;;;;;;0.95;0.70;;;15.30;68.30;;;;;;4974212;28;20039;-75
2020/12/19 12:17:21;;;;;;;1.83;0.70;;;15.30;68.20;;;;;;4975105;28;20536;-74
2020/12/19 12:20:01;;;;;;;0.73;0.63;;;15.30;68.20;;;;;;4975190;28;20039;-75
2020/12/19 12:22:31;;;;;;;0.80;0.60;;;15.30;68.20;;;;;;4981975;28;20045;-74
2020/12/19 12:25:00;;;;;;;0.68;0.57;;;15.30;68.20;;;;;;4989318;28;20038;-74
2020/12/19 12:27:26;;;;;;;2.17;0.60;;;15.30;68.20;;;;;;4975343;28;20042;-74
2020/12/19 12:29:59;;;;;;;0.70;0.70;;;15.30;68.20;;;;;;4974724;28;20061;-74
2020/12/19 12:32:26;;;;;;;0.80;0.80;;;15.30;68.20;;;;;;4965770;28;20058;-74
2020/12/19 12:34:51;;;;;;;1.40;0.80;;;15.30;68.20;;;;;;4973319;28;20057;-74
2020/12/19 12:37:22;;;;;;;0.82;0.82;;;15.30;68.20;;;;;;4974958;28;20056;-74
2020/12/19 12:40:01;;;;;;;0.70;0.63;;;15.30;68.20;;;;;;4968042;28;20030;-74
2020/12/19 12:42:52;;;;;;;1.48;0.50;;;15.30;68.10;;;;;;4990580;28;20039;-74
2020/12/19 12:45:35;;;;;;;0.80;0.52;;;15.30;68.10;;;;;;4974832;28;20422;-74
2020/12/19 12:48:03;;;;;;;1.75;0.80;;;15.30;68.20;;;;;;4974062;28;20030;-74
2020/12/19 12:51:03;;;;;;;0.73;0.73;;;15.30;68.20;;;;;;4974080;28;20043;-74
2020/12/19 12:53:34;;;;;;;0.60;0.50;;;15.30;68.20;;;;;;4972810;28;20049;-75
2020/12/19 12:56:00;;;;;;;1.02;0.70;;;15.30;68.20;;;;;;4972454;28;20418;-74
2020/12/19 12:58:31;;;;;;;0.70;0.68;;;15.30;68.20;;;;;;4973751;28;20035;-74
2020/12/19 13:00:58;;;;;;;0.68;0.50;;;15.30;68.20;;;;;;4976951;28;20030;-73
2020/12/19 13:03:45;;;;;;;0.90;0.65;;;15.30;68.20;;;;;;4979063;28;20036;-74
2020/12/19 13:06:14;;;;;;;0.83;0.70;;;15.30;68.10;;;;;;4961267;28;20065;-74
2020/12/19 13:08:44;;;;;;;0.73;0.63;;;15.30;68.10;;;;;;4974147;28;20070;-74
2020/12/19 13:11:26;;;;;;;1.13;0.50;;;15.30;68.20;;;;;;4981993;28;20065;-74
2020/12/19 13:14:04;;;;;;;1.00;0.70;;;15.30;68.10;;;;;;4973898;28;20114;-74
2020/12/19 13:16:49;;;;;;;0.40;0.40;;;15.30;68.10;;;;;;4974398;28;20041;-74
2020/12/19 13:19:21;;;;;;;0.93;0.68;;;15.30;68.20;;;;;;4974368;28;20027;-74